sensor_id;sensor_type;location;lat;lon;timestamp;pressure;altitude;pressure_sealevel;temperature;humidity
42001;BME280;27689;48.390;10.856;2023-03-21T00:00:24;96329.94;;;8.34;84.74
42001;BME280;27689;48.390;10.856;2023-03-21T00:03:08;96320.00;;;8.28;85.86
42001;BME280;27689;48.390;10.856;2023-03-21T00:05:52;96320.69;;;8.30;85.57
42001;BME280;27689;48.390;10.856;2023-03-21T00:08:37;96321.41;;;8.32;85.65
42001;BME280;27689;48.390;10.856;2023-03-21T00:11:21;96322.09;;;8.34;85.50
42001;BME280;27689;48.390;10.856;2023-03-21T00:14:05;96318.66;;;8.33;85.51
42001;BME280;27689;48.390;10.856;2023-03-21T00:16:51;96309.06;;;8.34;85.08
42001;BME280;27689;48.390;10.856;2023-03-21T00:19:36;96311.78;;;8.32;85.39
42001;BME280;27689;48.390;10.856;2023-03-21T00:22:21;96311.78;;;8.32;85.28
42001;BME280;27689;48.390;10.856;2023-03-21T00:25:05;96313.69;;;8.30;85.27
42001;BME280;27689;48.390;10.856;2023-03-21T00:27:50;96314.53;;;8.31;84.59
42001;BME280;27689;48.390;10.856;2023-03-21T00:30:34;96315.31;;;8.31;83.98
42001;BME280;27689;48.390;10.856;2023-03-21T00:33:18;96315.31;;;8.31;84.16
42001;BME280;27689;48.390;10.856;2023-03-21T00:36:05;96309.75;;;8.36;84.02
42001;BME280;27689;48.390;10.856;2023-03-21T00:38:49;96297.91;;;8.32;84.44
42001;BME280;27689;48.390;10.856;2023-03-21T00:41:33;96295.28;;;8.32;84.06
42001;BME280;27689;48.390;10.856;2023-03-21T00:44:17;96297.66;;;8.35;84.30
42001;BME280;27689;48.390;10.856;2023-03-21T00:47:02;96291.16;;;8.29;85.02
42001;BME280;27689;48.390;10.856;2023-03-21T00:49:46;96297.13;;;8.20;85.55
42001;BME280;27689;48.390;10.856;2023-03-21T00:52:30;96290.53;;;8.16;86.29
42001;BME280;27689;48.390;10.856;2023-03-21T00:55:15;96284.47;;;8.16;86.51
42001;BME280;27689;48.390;10.856;2023-03-21T00:58:00;96274.34;;;8.01;86.87
42001;BME280;27689;48.390;10.856;2023-03-21T01:00:44;96284.09;;;7.99;87.60
42001;BME280;27689;48.390;10.856;2023-03-21T01:03:32;96283.13;;;8.00;87.55
42001;BME280;27689;48.390;10.856;2023-03-21T01:06:25;96273.78;;;7.98;87.43
42001;BME280;27689;48.390;10.856;2023-03-21T01:09:16;96272.69;;;8.00;87.44
42001;BME280;27689;48.390;10.856;2023-03-21T01:12:02;96276.94;;;8.01;87.40
42001;BME280;27689;48.390;10.856;2023-03-21T01:14:49;96274.72;;;7.97;88.15
42001;BME280;27689;48.390;10.856;2023-03-21T01:17:32;96280.66;;;7.99;87.72
42001;BME280;27689;48.390;10.856;2023-03-21T01:20:16;96267.59;;;7.99;87.73
42001;BME280;27689;48.390;10.856;2023-03-21T01:23:01;96272.94;;;7.97;87.68
42001;BME280;27689;48.390;10.856;2023-03-21T01:25:47;96276.88;;;7.92;88.96
42001;BME280;27689;48.390;10.856;2023-03-21T01:28:32;96274.22;;;7.82;89.46
42001;BME280;27689;48.390;10.856;2023-03-21T01:31:17;96272.09;;;7.76;90.16
42001;BME280;27689;48.390;10.856;2023-03-21T01:34:01;96270.19;;;7.78;90.13
42001;BME280;27689;48.390;10.856;2023-03-21T01:36:45;96267.34;;;7.81;90.19
42001;BME280;27689;48.390;10.856;2023-03-21T01:39:29;96267.94;;;7.85;90.18
42001;BME280;27689;48.390;10.856;2023-03-21T01:42:15;96264.72;;;7.81;90.27
42001;BME280;27689;48.390;10.856;2023-03-21T01:45:03;96269.00;;;7.82;90.53
42001;BME280;27689;48.390;10.856;2023-03-21T01:47:48;96269.13;;;7.81;90.72
42001;BME280;27689;48.390;10.856;2023-03-21T01:50:32;96261.41;;;7.79;91.03
42001;BME280;27689;48.390;10.856;2023-03-21T01:53:18;96266.16;;;7.85;90.24
42001;BME280;27689;48.390;10.856;2023-03-21T01:56:25;96263.25;;;7.88;90.63
42001;BME280;27689;48.390;10.856;2023-03-21T01:59:14;96267.84;;;7.96;90.18
42001;BME280;27689;48.390;10.856;2023-03-21T02:02:01;96268.22;;;7.91;90.31
42001;BME280;27689;48.390;10.856;2023-03-21T02:04:50;96257.41;;;7.96;89.86
42001;BME280;27689;48.390;10.856;2023-03-21T02:07:39;96254.34;;;7.91;90.07
42001;BME280;27689;48.390;10.856;2023-03-21T02:10:25;96255.88;;;7.93;90.01
42001;BME280;27689;48.390;10.856;2023-03-21T02:13:11;96251.88;;;7.89;90.06
42001;BME280;27689;48.390;10.856;2023-03-21T02:16:01;96246.41;;;7.92;90.06
42001;BME280;27689;48.390;10.856;2023-03-21T02:28:10;96243.59;;;8.05;89.49
42001;BME280;27689;48.390;10.856;2023-03-21T02:31:40;96243.34;;;8.08;89.59
42001;BME280;27689;48.390;10.856;2023-03-21T02:37:34;96237.44;;;8.06;89.13
42001;BME280;27689;48.390;10.856;2023-03-21T02:40:31;96229.47;;;8.07;88.97
42001;BME280;27689;48.390;10.856;2023-03-21T02:43:39;96242.41;;;8.09;89.10
42001;BME280;27689;48.390;10.856;2023-03-21T02:46:29;96235.28;;;8.11;89.06
42001;BME280;27689;48.390;10.856;2023-03-21T02:49:21;96241.06;;;8.14;88.84
42001;BME280;27689;48.390;10.856;2023-03-21T02:52:08;96242.56;;;8.17;88.59
42001;BME280;27689;48.390;10.856;2023-03-21T02:54:55;96242.16;;;8.12;88.60
42001;BME280;27689;48.390;10.856;2023-03-21T02:57:42;96245.19;;;8.17;88.74
42001;BME280;27689;48.390;10.856;2023-03-21T03:00:30;96231.13;;;8.08;88.78
42001;BME280;27689;48.390;10.856;2023-03-21T03:03:15;96235.66;;;8.06;88.98
42001;BME280;27689;48.390;10.856;2023-03-21T03:06:01;96234.13;;;8.04;89.68
42001;BME280;27689;48.390;10.856;2023-03-21T03:09:21;96231.72;;;8.12;89.09
42001;BME280;27689;48.390;10.856;2023-03-21T03:12:20;96224.72;;;8.12;89.47
42001;BME280;27689;48.390;10.856;2023-03-21T03:15:26;96232.13;;;8.17;89.64
42001;BME280;27689;48.390;10.856;2023-03-21T03:18:28;96228.69;;;8.17;89.93
42001;BME280;27689;48.390;10.856;2023-03-21T03:21:31;96226.09;;;8.17;89.85
42001;BME280;27689;48.390;10.856;2023-03-21T03:25:25;96227.91;;;8.16;89.93
42001;BME280;27689;48.390;10.856;2023-03-21T03:27:44;96226.91;;;8.17;89.66
42001;BME280;27689;48.390;10.856;2023-03-21T03:30:32;96213.03;;;8.17;89.88
42001;BME280;27689;48.390;10.856;2023-03-21T03:33:20;96224.47;;;8.16;89.48
42001;BME280;27689;48.390;10.856;2023-03-21T03:36:09;96221.84;;;8.16;89.69
42001;BME280;27689;48.390;10.856;2023-03-21T03:38:55;96221.06;;;8.04;90.31
42001;BME280;27689;48.390;10.856;2023-03-21T03:41:46;96217.59;;;7.94;90.76
42001;BME280;27689;48.390;10.856;2023-03-21T03:44:34;96216.88;;;7.92;90.94
42001;BME280;27689;48.390;10.856;2023-03-21T03:50:30;96217.34;;;7.97;90.86
42001;BME280;27689;48.390;10.856;2023-03-21T03:53:23;96212.94;;;7.97;90.42
42001;BME280;27689;48.390;10.856;2023-03-21T03:56:09;96210.53;;;7.85;91.96
42001;BME280;27689;48.390;10.856;2023-03-21T03:58:55;96218.50;;;7.83;92.33
42001;BME280;27689;48.390;10.856;2023-03-21T04:01:39;96217.53;;;7.84;92.37
42001;BME280;27689;48.390;10.856;2023-03-21T04:04:24;96224.13;;;7.88;92.21
42001;BME280;27689;48.390;10.856;2023-03-21T04:07:11;96216.19;;;7.90;92.17
42001;BME280;27689;48.390;10.856;2023-03-21T04:09:55;96210.97;;;7.90;92.39
42001;BME280;27689;48.390;10.856;2023-03-21T04:12:40;96207.09;;;7.84;93.66
42001;BME280;27689;48.390;10.856;2023-03-21T04:15:24;96204.75;;;7.81;93.46
42001;BME280;27689;48.390;10.856;2023-03-21T04:18:08;96208.47;;;7.88;93.49
42001;BME280;27689;48.390;10.856;2023-03-21T04:20:52;96208.47;;;7.88;93.49
42001;BME280;27689;48.390;10.856;2023-03-21T04:23:37;96207.66;;;7.88;93.01
42001;BME280;27689;48.390;10.856;2023-03-21T04:26:22;96207.81;;;7.86;93.05
42001;BME280;27689;48.390;10.856;2023-03-21T04:29:06;96211.50;;;7.84;93.34
42001;BME280;27689;48.390;10.856;2023-03-21T04:31:50;96206.00;;;7.87;93.41
42001;BME280;27689;48.390;10.856;2023-03-21T04:34:34;96209.84;;;7.83;93.86
42001;BME280;27689;48.390;10.856;2023-03-21T04:37:23;96213.28;;;7.83;94.10
42001;BME280;27689;48.390;10.856;2023-03-21T04:40:07;96213.81;;;7.87;93.71
42001;BME280;27689;48.390;10.856;2023-03-21T04:42:53;96213.44;;;7.91;93.78
42001;BME280;27689;48.390;10.856;2023-03-21T04:45:37;96211.78;;;7.90;93.75
42001;BME280;27689;48.390;10.856;2023-03-21T04:48:21;96210.53;;;7.85;94.00
42001;BME280;27689;48.390;10.856;2023-03-21T04:51:07;96211.09;;;7.88;94.07
42001;BME280;27689;48.390;10.856;2023-03-21T04:53:50;96206.41;;;7.82;94.24
42001;BME280;27689;48.390;10.856;2023-03-21T04:56:35;96215.44;;;7.78;94.94
42001;BME280;27689;48.390;10.856;2023-03-21T04:59:19;96211.41;;;7.74;95.65
42001;BME280;27689;48.390;10.856;2023-03-21T05:02:04;96210.03;;;7.70;95.56
42001;BME280;27689;48.390;10.856;2023-03-21T05:04:48;96218.81;;;7.69;95.85
42001;BME280;27689;48.390;10.856;2023-03-21T05:07:32;96222.78;;;7.73;95.52
42001;BME280;27689;48.390;10.856;2023-03-21T05:10:16;96205.91;;;7.67;95.73
42001;BME280;27689;48.390;10.856;2023-03-21T05:12:59;96208.69;;;7.55;96.76
42001;BME280;27689;48.390;10.856;2023-03-21T05:15:43;96212.94;;;7.56;96.70
42001;BME280;27689;48.390;10.856;2023-03-21T05:18:28;96212.00;;;7.57;96.59
42001;BME280;27689;48.390;10.856;2023-03-21T05:21:13;96205.13;;;7.56;96.90
42001;BME280;27689;48.390;10.856;2023-03-21T05:24:01;96207.47;;;7.59;96.49
42001;BME280;27689;48.390;10.856;2023-03-21T05:26:47;96204.97;;;7.57;96.61
42001;BME280;27689;48.390;10.856;2023-03-21T05:29:34;96207.59;;;7.57;96.83
42001;BME280;27689;48.390;10.856;2023-03-21T05:32:19;96201.94;;;7.52;97.76
42001;BME280;27689;48.390;10.856;2023-03-21T05:35:04;96211.66;;;7.50;97.77
42001;BME280;27689;48.390;10.856;2023-03-21T05:37:48;96210.84;;;7.50;98.06
42001;BME280;27689;48.390;10.856;2023-03-21T05:40:32;96209.41;;;7.46;98.41
42001;BME280;27689;48.390;10.856;2023-03-21T05:43:16;96208.84;;;7.42;98.68
42001;BME280;27689;48.390;10.856;2023-03-21T05:46:00;96210.00;;;7.49;98.59
42001;BME280;27689;48.390;10.856;2023-03-21T05:48:44;96217.00;;;7.49;98.58
42001;BME280;27689;48.390;10.856;2023-03-21T05:51:28;96219.34;;;7.52;98.74
42001;BME280;27689;48.390;10.856;2023-03-21T05:54:12;96222.78;;;7.52;98.12
42001;BME280;27689;48.390;10.856;2023-03-21T05:56:59;96221.84;;;7.53;98.42
42001;BME280;27689;48.390;10.856;2023-03-21T05:59:43;96227.88;;;7.54;98.72
42001;BME280;27689;48.390;10.856;2023-03-21T06:02:27;96223.38;;;7.56;98.86
42001;BME280;27689;48.390;10.856;2023-03-21T06:05:10;96235.31;;;7.58;98.37
42001;BME280;27689;48.390;10.856;2023-03-21T06:07:54;96226.41;;;7.61;98.01
42001;BME280;27689;48.390;10.856;2023-03-21T06:10:39;96242.06;;;7.61;98.72
42001;BME280;27689;48.390;10.856;2023-03-21T06:13:22;96227.50;;;7.58;98.63
42001;BME280;27689;48.390;10.856;2023-03-21T06:16:07;96224.06;;;7.58;98.53
42001;BME280;27689;48.390;10.856;2023-03-21T06:18:51;96237.38;;;7.55;99.19
42001;BME280;27689;48.390;10.856;2023-03-21T06:21:35;96236.84;;;7.61;98.67
42001;BME280;27689;48.390;10.856;2023-03-21T06:24:20;96233.28;;;7.62;98.66
42001;BME280;27689;48.390;10.856;2023-03-21T06:27:04;96234.13;;;7.62;98.75
42001;BME280;27689;48.390;10.856;2023-03-21T06:29:48;96224.63;;;7.61;99.13
42001;BME280;27689;48.390;10.856;2023-03-21T06:32:32;96233.03;;;7.65;98.45
42001;BME280;27689;48.390;10.856;2023-03-21T06:35:16;96231.13;;;7.67;98.82
42001;BME280;27689;48.390;10.856;2023-03-21T06:38:00;96235.59;;;7.76;98.23
42001;BME280;27689;48.390;10.856;2023-03-21T06:40:47;96231.91;;;7.78;98.42
42001;BME280;27689;48.390;10.856;2023-03-21T06:43:31;96239.84;;;7.77;98.19
42001;BME280;27689;48.390;10.856;2023-03-21T06:46:16;96239.47;;;7.82;98.22
42001;BME280;27689;48.390;10.856;2023-03-21T06:48:59;96235.78;;;7.84;97.62
42001;BME280;27689;48.390;10.856;2023-03-21T06:51:43;96234.69;;;7.87;97.45
42001;BME280;27689;48.390;10.856;2023-03-21T06:54:27;96224.25;;;7.87;98.08
42001;BME280;27689;48.390;10.856;2023-03-21T06:57:11;96230.06;;;7.90;97.57
42001;BME280;27689;48.390;10.856;2023-03-21T06:59:56;96226.38;;;7.93;97.50
42001;BME280;27689;48.390;10.856;2023-03-21T07:02:40;96234.78;;;7.96;97.53
42001;BME280;27689;48.390;10.856;2023-03-21T07:05:24;96234.66;;;7.98;97.35
42001;BME280;27689;48.390;10.856;2023-03-21T07:08:08;96225.03;;;7.98;97.58
42001;BME280;27689;48.390;10.856;2023-03-21T07:10:56;96232.75;;;8.00;96.86
42001;BME280;27689;48.390;10.856;2023-03-21T07:13:41;96234.00;;;8.05;96.43
42001;BME280;27689;48.390;10.856;2023-03-21T07:16:24;96240.63;;;8.09;94.95
42001;BME280;27689;48.390;10.856;2023-03-21T07:19:09;96238.47;;;8.14;94.99
42001;BME280;27689;48.390;10.856;2023-03-21T07:21:53;96249.91;;;8.23;95.32
42001;BME280;27689;48.390;10.856;2023-03-21T07:24:37;96243.22;;;8.30;94.41
42001;BME280;27689;48.390;10.856;2023-03-21T07:27:21;96241.56;;;8.29;94.13
42001;BME280;27689;48.390;10.856;2023-03-21T07:30:06;96241.19;;;8.34;94.25
42001;BME280;27689;48.390;10.856;2023-03-21T07:32:50;96236.28;;;8.40;94.36
42001;BME280;27689;48.390;10.856;2023-03-21T07:35:34;96240.00;;;8.47;93.99
42001;BME280;27689;48.390;10.856;2023-03-21T07:38:20;96232.50;;;8.54;92.95
42001;BME280;27689;48.390;10.856;2023-03-21T07:41:04;96225.63;;;8.63;93.91
42001;BME280;27689;48.390;10.856;2023-03-21T07:43:48;96225.00;;;8.70;93.30
42001;BME280;27689;48.390;10.856;2023-03-21T07:46:32;96224.19;;;8.79;92.50
42001;BME280;27689;48.390;10.856;2023-03-21T07:49:16;96234.13;;;8.86;91.79
42001;BME280;27689;48.390;10.856;2023-03-21T07:52:00;96221.47;;;8.91;92.81
42001;BME280;27689;48.390;10.856;2023-03-21T07:54:44;96222.97;;;8.83;92.09
42001;BME280;27689;48.390;10.856;2023-03-21T07:57:29;96232.06;;;8.89;92.61
42001;BME280;27689;48.390;10.856;2023-03-21T08:00:13;96231.78;;;8.92;90.51
42001;BME280;27689;48.390;10.856;2023-03-21T08:03:05;96237.75;;;9.04;90.31
42001;BME280;27689;48.390;10.856;2023-03-21T08:05:49;96238.44;;;9.15;90.13
42001;BME280;27689;48.390;10.856;2023-03-21T08:08:32;96240.50;;;9.12;89.69
42001;BME280;27689;48.390;10.856;2023-03-21T08:11:16;96238.03;;;9.20;89.79
42001;BME280;27689;48.390;10.856;2023-03-21T08:14:01;96232.97;;;9.28;89.72
42001;BME280;27689;48.390;10.856;2023-03-21T08:16:45;96232.13;;;9.37;90.38
42001;BME280;27689;48.390;10.856;2023-03-21T08:19:28;96234.09;;;9.45;88.05
42001;BME280;27689;48.390;10.856;2023-03-21T08:22:12;96230.25;;;9.49;87.34
42001;BME280;27689;48.390;10.856;2023-03-21T08:24:56;96229.97;;;9.62;88.07
42001;BME280;27689;48.390;10.856;2023-03-21T08:27:41;96232.00;;;9.68;87.48
42001;BME280;27689;48.390;10.856;2023-03-21T08:30:25;96222.78;;;9.73;87.38
42001;BME280;27689;48.390;10.856;2023-03-21T08:33:10;96218.22;;;9.85;88.31
42001;BME280;27689;48.390;10.856;2023-03-21T08:35:58;96215.06;;;9.91;87.85
42001;BME280;27689;48.390;10.856;2023-03-21T08:38:42;96220.03;;;9.94;86.49
42001;BME280;27689;48.390;10.856;2023-03-21T08:41:28;96213.53;;;9.98;86.83
42001;BME280;27689;48.390;10.856;2023-03-21T08:44:12;96212.00;;;10.05;86.11
42001;BME280;27689;48.390;10.856;2023-03-21T08:46:56;96226.16;;;10.12;84.94
42001;BME280;27689;48.390;10.856;2023-03-21T08:49:40;96219.69;;;10.16;84.91
42001;BME280;27689;48.390;10.856;2023-03-21T08:52:25;96224.69;;;10.19;83.79
42001;BME280;27689;48.390;10.856;2023-03-21T08:55:10;96210.72;;;10.29;84.07
42001;BME280;27689;48.390;10.856;2023-03-21T08:57:54;96214.41;;;10.45;84.28
42001;BME280;27689;48.390;10.856;2023-03-21T09:00:38;96212.13;;;10.60;83.22
42001;BME280;27689;48.390;10.856;2023-03-21T09:03:22;96213.59;;;10.72;82.59
42001;BME280;27689;48.390;10.856;2023-03-21T09:06:07;96204.38;;;10.68;79.81
42001;BME280;27689;48.390;10.856;2023-03-21T09:08:53;96210.13;;;10.81;81.63
42001;BME280;27689;48.390;10.856;2023-03-21T09:11:37;96211.41;;;10.95;78.93
42001;BME280;27689;48.390;10.856;2023-03-21T09:14:21;96210.38;;;11.06;79.38
42001;BME280;27689;48.390;10.856;2023-03-21T09:17:05;96217.66;;;11.12;76.91
42001;BME280;27689;48.390;10.856;2023-03-21T09:19:49;96216.53;;;11.14;75.95
42001;BME280;27689;48.390;10.856;2023-03-21T09:22:33;96205.31;;;11.22;75.17
42001;BME280;27689;48.390;10.856;2023-03-21T09:25:18;96207.47;;;11.09;71.92
42001;BME280;27689;48.390;10.856;2023-03-21T09:28:03;96218.81;;;11.00;69.34
42001;BME280;27689;48.390;10.856;2023-03-21T09:30:47;96208.50;;;11.16;70.88
42001;BME280;27689;48.390;10.856;2023-03-21T09:33:31;96200.22;;;11.20;71.08
42001;BME280;27689;48.390;10.856;2023-03-21T09:36:18;96206.97;;;11.41;71.68
42001;BME280;27689;48.390;10.856;2023-03-21T09:39:04;96213.03;;;11.59;71.20
42001;BME280;27689;48.390;10.856;2023-03-21T09:45:04;96206.91;;;11.50;71.24
42001;BME280;27689;48.390;10.856;2023-03-21T09:47:52;96208.06;;;11.74;69.98
42001;BME280;27689;48.390;10.856;2023-03-21T09:50:37;96202.00;;;11.91;69.89
42001;BME280;27689;48.390;10.856;2023-03-21T09:53:28;96205.88;;;12.05;69.12
42001;BME280;27689;48.390;10.856;2023-03-21T09:56:16;96194.66;;;11.94;68.61
42001;BME280;27689;48.390;10.856;2023-03-21T09:59:00;96206.53;;;11.81;67.93
42001;BME280;27689;48.390;10.856;2023-03-21T10:01:47;96196.94;;;11.72;67.13
42001;BME280;27689;48.390;10.856;2023-03-21T10:04:31;96188.63;;;12.02;68.44
42001;BME280;27689;48.390;10.856;2023-03-21T10:07:16;96184.09;;;11.69;66.52
42001;BME280;27689;48.390;10.856;2023-03-21T10:10:02;96173.75;;;11.85;66.38
42001;BME280;27689;48.390;10.856;2023-03-21T10:12:48;96177.38;;;12.10;68.18
42001;BME280;27689;48.390;10.856;2023-03-21T10:15:33;96181.06;;;12.25;65.73
42001;BME280;27689;48.390;10.856;2023-03-21T10:18:21;96169.53;;;12.18;65.34
42001;BME280;27689;48.390;10.856;2023-03-21T10:21:19;96160.00;;;12.43;65.57
42001;BME280;27689;48.390;10.856;2023-03-21T10:24:03;96163.94;;;12.47;64.85
42001;BME280;27689;48.390;10.856;2023-03-21T10:26:48;96158.59;;;12.64;65.23
42001;BME280;27689;48.390;10.856;2023-03-21T10:29:40;96156.72;;;12.49;65.05
42001;BME280;27689;48.390;10.856;2023-03-21T10:32:26;96156.47;;;12.60;65.58
42001;BME280;27689;48.390;10.856;2023-03-21T10:35:12;96152.94;;;12.85;65.04
42001;BME280;27689;48.390;10.856;2023-03-21T10:37:56;96142.94;;;12.97;64.39
42001;BME280;27689;48.390;10.856;2023-03-21T10:40:41;96147.22;;;13.06;62.59
42001;BME280;27689;48.390;10.856;2023-03-21T10:46:16;96142.94;;;12.97;62.85
42001;BME280;27689;48.390;10.856;2023-03-21T10:49:02;96142.16;;;13.13;62.28
42001;BME280;27689;48.390;10.856;2023-03-21T10:51:48;96138.25;;;13.41;65.20
42001;BME280;27689;48.390;10.856;2023-03-21T10:54:34;96137.13;;;13.44;63.00
42001;BME280;27689;48.390;10.856;2023-03-21T10:57:20;96133.66;;;13.51;62.18
42001;BME280;27689;48.390;10.856;2023-03-21T11:00:07;96139.28;;;13.64;61.09
42001;BME280;27689;48.390;10.856;2023-03-21T11:02:59;96130.53;;;13.72;61.91
42001;BME280;27689;48.390;10.856;2023-03-21T11:05:43;96135.47;;;13.91;60.99
42001;BME280;27689;48.390;10.856;2023-03-21T11:08:28;96140.22;;;13.96;60.76
42001;BME280;27689;48.390;10.856;2023-03-21T11:11:18;96132.16;;;14.05;60.06
42001;BME280;27689;48.390;10.856;2023-03-21T11:14:05;96134.25;;;14.10;60.46
42001;BME280;27689;48.390;10.856;2023-03-21T11:16:50;96125.13;;;14.45;62.09
42001;BME280;27689;48.390;10.856;2023-03-21T11:19:35;96127.66;;;14.69;59.48
42001;BME280;27689;48.390;10.856;2023-03-21T11:22:20;96118.22;;;14.52;58.96
42001;BME280;27689;48.390;10.856;2023-03-21T11:25:09;96117.88;;;14.86;58.40
42001;BME280;27689;48.390;10.856;2023-03-21T11:27:55;96120.31;;;14.57;58.03
42001;BME280;27689;48.390;10.856;2023-03-21T11:30:49;96118.72;;;14.31;58.70
42001;BME280;27689;48.390;10.856;2023-03-21T11:33:37;96111.75;;;14.55;57.94
42001;BME280;27689;48.390;10.856;2023-03-21T11:36:26;96102.97;;;14.23;59.06
42001;BME280;27689;48.390;10.856;2023-03-21T11:39:30;96103.75;;;14.32;59.64
42001;BME280;27689;48.390;10.856;2023-03-21T11:42:30;96098.13;;;14.35;58.52
42001;BME280;27689;48.390;10.856;2023-03-21T11:48:11;96086.41;;;14.45;58.60
42001;BME280;27689;48.390;10.856;2023-03-21T11:51:03;96078.75;;;14.67;59.04
42001;BME280;27689;48.390;10.856;2023-03-21T11:53:56;96087.25;;;14.38;58.39
42001;BME280;27689;48.390;10.856;2023-03-21T11:56:45;96081.72;;;14.95;57.91
42001;BME280;27689;48.390;10.856;2023-03-21T11:59:48;96075.97;;;15.37;58.44
42001;BME280;27689;48.390;10.856;2023-03-21T12:05:52;96064.09;;;16.22;58.94
42001;BME280;27689;48.390;10.856;2023-03-21T12:08:44;96051.50;;;16.39;58.14
42001;BME280;27689;48.390;10.856;2023-03-21T12:15:16;96047.59;;;16.20;54.25
42001;BME280;27689;48.390;10.856;2023-03-21T12:21:25;96035.31;;;16.13;53.71
42001;BME280;27689;48.390;10.856;2023-03-21T12:24:21;96029.94;;;16.06;53.32
42001;BME280;27689;48.390;10.856;2023-03-21T12:27:18;96031.91;;;16.19;51.87
42001;BME280;27689;48.390;10.856;2023-03-21T12:33:36;96026.28;;;16.22;51.99
42001;BME280;27689;48.390;10.856;2023-03-21T12:36:52;96019.41;;;16.42;51.36
42001;BME280;27689;48.390;10.856;2023-03-21T12:39:40;96022.31;;;16.47;49.99
42001;BME280;27689;48.390;10.856;2023-03-21T12:42:51;96024.41;;;16.67;49.53
42001;BME280;27689;48.390;10.856;2023-03-21T12:45:40;96009.44;;;16.74;48.96
42001;BME280;27689;48.390;10.856;2023-03-21T12:48:49;96006.16;;;16.93;49.50
42001;BME280;27689;48.390;10.856;2023-03-21T12:51:38;96001.88;;;17.13;49.31
42001;BME280;27689;48.390;10.856;2023-03-21T12:54:31;96001.03;;;16.70;48.17
42001;BME280;27689;48.390;10.856;2023-03-21T12:57:25;95987.63;;;17.14;49.57
42001;BME280;27689;48.390;10.856;2023-03-21T13:00:21;95990.94;;;17.23;48.15
42001;BME280;27689;48.390;10.856;2023-03-21T13:03:15;95981.78;;;17.47;46.13
42001;BME280;27689;48.390;10.856;2023-03-21T13:06:03;95989.53;;;17.48;46.46
42001;BME280;27689;48.390;10.856;2023-03-21T13:09:01;95977.41;;;17.33;46.81
42001;BME280;27689;48.390;10.856;2023-03-21T13:11:51;95986.88;;;17.20;47.91
42001;BME280;27689;48.390;10.856;2023-03-21T13:14:44;95975.84;;;17.17;48.48
42001;BME280;27689;48.390;10.856;2023-03-21T13:17:41;95972.09;;;17.33;48.03
42001;BME280;27689;48.390;10.856;2023-03-21T13:20:40;95976.59;;;17.11;48.57
42001;BME280;27689;48.390;10.856;2023-03-21T13:23:37;95972.19;;;17.46;47.80
42001;BME280;27689;48.390;10.856;2023-03-21T13:26:31;95963.59;;;17.65;48.65
42001;BME280;27689;48.390;10.856;2023-03-21T13:29:45;95967.56;;;17.82;46.80
42001;BME280;27689;48.390;10.856;2023-03-21T13:32:36;95956.16;;;17.54;48.08
42001;BME280;27689;48.390;10.856;2023-03-21T13:35:24;95960.00;;;17.51;47.61
42001;BME280;27689;48.390;10.856;2023-03-21T13:38:16;95948.41;;;17.24;48.25
42001;BME280;27689;48.390;10.856;2023-03-21T13:41:07;95952.06;;;17.23;47.72
42001;BME280;27689;48.390;10.856;2023-03-21T13:47:01;95947.88;;;16.86;47.91
42001;BME280;27689;48.390;10.856;2023-03-21T13:53:21;95944.97;;;16.60;46.52
42001;BME280;27689;48.390;10.856;2023-03-21T13:56:20;95951.59;;;16.35;47.80
42001;BME280;27689;48.390;10.856;2023-03-21T13:59:09;95938.28;;;16.43;48.38
42001;BME280;27689;48.390;10.856;2023-03-21T14:05:06;95933.44;;;16.46;48.37
42001;BME280;27689;48.390;10.856;2023-03-21T14:08:04;95940.50;;;16.61;48.51
42001;BME280;27689;48.390;10.856;2023-03-21T14:10:53;95936.59;;;16.78;49.72
42001;BME280;27689;48.390;10.856;2023-03-21T14:13:41;95939.81;;;16.95;48.04
42001;BME280;27689;48.390;10.856;2023-03-21T14:16:26;95942.78;;;16.85;48.41
42001;BME280;27689;48.390;10.856;2023-03-21T14:19:14;95924.59;;;16.75;49.66
42001;BME280;27689;48.390;10.856;2023-03-21T14:21:58;95923.88;;;16.67;50.07
42001;BME280;27689;48.390;10.856;2023-03-21T14:27:42;95922.63;;;16.48;50.57
42001;BME280;27689;48.390;10.856;2023-03-21T14:30:37;95913.03;;;16.62;51.53
42001;BME280;27689;48.390;10.856;2023-03-21T14:33:36;95920.50;;;16.73;51.42
42001;BME280;27689;48.390;10.856;2023-03-21T14:36:27;95915.03;;;16.60;50.64
42001;BME280;27689;48.390;10.856;2023-03-21T14:39:14;95911.09;;;16.70;51.58
42001;BME280;27689;48.390;10.856;2023-03-21T14:42:05;95907.75;;;16.62;51.47
42001;BME280;27689;48.390;10.856;2023-03-21T14:44:49;95908.94;;;16.59;52.96
42001;BME280;27689;48.390;10.856;2023-03-21T14:47:34;95911.34;;;16.18;52.06
42001;BME280;27689;48.390;10.856;2023-03-21T14:50:21;95906.63;;;16.13;52.54
42001;BME280;27689;48.390;10.856;2023-03-21T14:53:19;95909.03;;;15.94;52.37
42001;BME280;27689;48.390;10.856;2023-03-21T14:56:17;95912.34;;;15.81;52.91
42001;BME280;27689;48.390;10.856;2023-03-21T14:59:03;95911.66;;;15.94;53.05
42001;BME280;27689;48.390;10.856;2023-03-21T15:01:48;95904.66;;;16.01;53.33
42001;BME280;27689;48.390;10.856;2023-03-21T15:04:34;95911.59;;;15.87;53.49
42001;BME280;27689;48.390;10.856;2023-03-21T15:07:30;95906.59;;;15.77;53.89
42001;BME280;27689;48.390;10.856;2023-03-21T15:10:16;95902.84;;;15.86;53.22
42001;BME280;27689;48.390;10.856;2023-03-21T15:13:31;95903.00;;;16.00;52.99
42001;BME280;27689;48.390;10.856;2023-03-21T15:16:17;95902.47;;;15.90;53.36
42001;BME280;27689;48.390;10.856;2023-03-21T15:19:02;95893.22;;;15.64;52.69
42001;BME280;27689;48.390;10.856;2023-03-21T15:21:50;95899.03;;;15.74;53.16
42001;BME280;27689;48.390;10.856;2023-03-21T15:24:40;95886.75;;;15.67;52.83
42001;BME280;27689;48.390;10.856;2023-03-21T15:27:39;95891.47;;;15.86;52.61
42001;BME280;27689;48.390;10.856;2023-03-21T15:30:26;95888.41;;;15.68;52.62
42001;BME280;27689;48.390;10.856;2023-03-21T15:33:11;95891.56;;;15.63;53.33